createdAt,value
2022-09-07T00:01:02.017Z,4.40
2022-09-07T00:03:30.633Z,5.10
2022-09-07T00:06:00.775Z,4.20
2022-09-07T00:08:29.040Z,4.50
2022-09-07T00:10:58.977Z,4.47
2022-09-07T00:13:28.736Z,4.17
2022-09-07T00:15:57.686Z,3.67
2022-09-07T00:18:26.489Z,4.37
2022-09-07T00:21:01.480Z,4.33
2022-09-07T00:23:30.570Z,4.23
2022-09-07T00:26:01.611Z,4.10
2022-09-07T00:28:30.362Z,3.93
2022-09-07T00:30:58.667Z,4.27
2022-09-07T00:33:26.939Z,5.10
2022-09-07T00:35:55.006Z,4.10
2022-09-07T00:38:24.600Z,4.43
2022-09-07T00:40:53.337Z,4.53
2022-09-07T00:43:32.069Z,3.90
2022-09-07T00:46:00.103Z,4.17
2022-09-07T00:48:33.503Z,4.13
2022-09-07T00:51:08.105Z,3.90
2022-09-07T00:53:45.658Z,3.90
2022-09-07T00:56:14.119Z,4.03
2022-09-07T00:58:44.096Z,3.83
2022-09-07T01:01:12.844Z,3.93
2022-09-07T01:03:44.520Z,4.23
2022-09-07T01:06:16.780Z,3.63
2022-09-07T01:08:48.680Z,3.43
2022-09-07T01:11:20.161Z,3.80
2022-09-07T01:13:49.793Z,3.80
2022-09-07T01:16:30.252Z,3.80
2022-09-07T01:19:11.970Z,4.00
2022-09-07T01:21:57.906Z,3.83
2022-09-07T01:24:51.505Z,4.07
2022-09-07T01:27:59.115Z,4.13
2022-09-07T01:30:28.217Z,4.50
2022-09-07T01:33:10.491Z,4.27
2022-09-07T01:35:47.671Z,4.13
2022-09-07T01:38:24.785Z,4.10
2022-09-07T01:41:02.438Z,4.60
2022-09-07T01:43:39.953Z,3.60
2022-09-07T01:46:14.676Z,4.50
2022-09-07T01:48:46.035Z,4.30
2022-09-07T01:51:22.779Z,4.53
2022-09-07T01:53:54.827Z,3.80
2022-09-07T01:56:31.561Z,4.20
2022-09-07T01:59:05.460Z,3.77
2022-09-07T02:01:39.680Z,4.13
2022-09-07T02:04:11.566Z,3.80
2022-09-07T02:06:47.472Z,3.93
2022-09-07T02:09:22.270Z,3.17
2022-09-07T02:11:50.641Z,5.00
2022-09-07T02:14:25.604Z,3.60
2022-09-07T02:17:01.202Z,4.70
2022-09-07T02:19:34.901Z,3.43
2022-09-07T02:22:07.450Z,4.03
2022-09-07T02:24:39.697Z,4.20
2022-09-07T02:27:12.208Z,4.23
2022-09-07T02:29:41.608Z,3.60
2022-09-07T02:32:09.611Z,3.60
2022-09-07T02:34:37.909Z,3.53
2022-09-07T02:37:11.688Z,3.20
2022-09-07T02:43:07.477Z,3.53
2022-09-07T02:46:12.375Z,3.30
2022-09-07T02:48:51.346Z,3.90
2022-09-07T02:52:00.783Z,4.13
2022-09-07T02:54:52.835Z,4.33
2022-09-07T02:57:38.737Z,3.77
2022-09-07T03:00:12.632Z,3.83
2022-09-07T03:02:51.554Z,3.40
2022-09-07T03:05:26.102Z,4.00
2022-09-07T03:08:01.208Z,3.20
2022-09-07T03:10:32.732Z,3.67
2022-09-07T03:13:00.741Z,4.07
2022-09-07T03:15:29.357Z,4.17
2022-09-07T03:17:58.888Z,3.17
2022-09-07T03:20:28.241Z,4.20
2022-09-07T03:22:56.281Z,3.90
2022-09-07T03:25:26.186Z,3.90
2022-09-07T03:27:54.186Z,3.40
2022-09-07T03:30:22.248Z,4.10
2022-09-07T03:32:51.221Z,3.87
2022-09-07T03:35:26.730Z,3.77
2022-09-07T03:37:54.684Z,3.37
2022-09-07T03:40:22.713Z,3.40
2022-09-07T03:42:51.000Z,3.97
2022-09-07T03:45:19.059Z,3.20
2022-09-07T03:47:54.297Z,3.47
2022-09-07T03:50:24.594Z,3.93
2022-09-07T03:52:52.543Z,3.90
2022-09-07T03:55:25.397Z,3.60
2022-09-07T03:57:54.709Z,3.60
2022-09-07T04:00:25.157Z,4.33
2022-09-07T04:02:53.320Z,4.43
2022-09-07T04:05:22.800Z,3.93
2022-09-07T04:07:53.861Z,3.30
2022-09-07T04:10:25.106Z,4.23
2022-09-07T04:12:53.173Z,4.00
2022-09-07T04:15:21.245Z,4.40
2022-09-07T04:17:49.193Z,4.33
2022-09-07T04:20:17.338Z,4.93
2022-09-07T04:22:54.075Z,4.20
2022-09-07T04:25:22.280Z,4.60
2022-09-07T04:27:53.386Z,4.10
2022-09-07T04:30:21.629Z,4.13
2022-09-07T04:32:49.541Z,4.27
2022-09-07T04:35:17.749Z,4.43
2022-09-07T04:37:45.834Z,4.70
2022-09-07T04:40:15.259Z,4.20
2022-09-07T04:42:43.444Z,4.70
2022-09-07T04:45:12.297Z,4.00
2022-09-07T04:47:40.224Z,4.17
2022-09-07T04:50:09.492Z,4.23
2022-09-07T04:52:37.457Z,4.50
2022-09-07T04:55:06.053Z,4.80
2022-09-07T04:57:35.315Z,4.43
2022-09-07T05:00:04.564Z,4.80
2022-09-07T05:02:32.521Z,4.33
2022-09-07T05:05:02.736Z,4.50
2022-09-07T05:07:30.978Z,4.37
2022-09-07T05:09:58.903Z,3.70
2022-09-07T05:12:27.049Z,3.90
2022-09-07T05:14:57.033Z,3.73
2022-09-07T05:17:24.999Z,4.50
2022-09-07T05:19:52.953Z,3.70
2022-09-07T05:22:20.981Z,4.27
2022-09-07T05:24:49.480Z,5.10
2022-09-07T05:27:17.399Z,5.00
2022-09-07T05:32:30.014Z,4.53
2022-09-07T05:34:57.981Z,4.50
2022-09-07T05:37:26.007Z,4.30
2022-09-07T05:39:57.095Z,3.67
2022-09-07T05:42:25.437Z,3.73
2022-09-07T05:44:53.356Z,2.83
2022-09-07T05:47:21.295Z,2.80
2022-09-07T05:49:51.990Z,2.87
2022-09-07T05:52:23.135Z,3.10
2022-09-07T05:54:54.325Z,2.30
2022-09-07T05:57:24.565Z,2.57
2022-09-07T05:59:52.476Z,2.57
2022-09-07T06:02:20.486Z,2.80
2022-09-07T06:04:50.844Z,2.63
2022-09-07T06:07:22.121Z,2.40
2022-09-07T06:12:39.214Z,2.43
2022-09-07T06:15:08.549Z,3.20
2022-09-07T06:17:36.417Z,3.17
2022-09-07T06:20:07.273Z,2.80
2022-09-07T06:22:37.061Z,2.93
2022-09-07T06:25:05.951Z,3.23
2022-09-07T06:27:33.986Z,3.43
2022-09-07T06:30:01.944Z,3.47
2022-09-07T06:32:45.562Z,3.10
2022-09-07T06:35:15.930Z,2.57
2022-09-07T06:37:44.113Z,3.60
2022-09-07T06:40:12.984Z,5.70
2022-09-07T06:42:41.123Z,4.57
2022-09-07T06:45:11.547Z,5.03
2022-09-07T06:47:40.168Z,7.23
2022-09-07T06:50:09.424Z,6.67
2022-09-07T06:55:27.720Z,12.07
2022-09-07T06:57:55.750Z,8.00
2022-09-07T07:00:23.710Z,15.50
2022-09-07T07:02:51.737Z,12.20
2022-09-07T07:05:19.707Z,10.30
2022-09-07T07:07:48.945Z,9.00
2022-09-07T07:10:19.762Z,7.83
2022-09-07T07:12:50.558Z,5.80
2022-09-07T07:15:18.434Z,5.60
2022-09-07T07:17:51.954Z,4.20
2022-09-07T07:20:24.009Z,3.30
2022-09-07T07:22:53.328Z,4.47
2022-09-07T07:25:21.550Z,2.80
2022-09-07T07:27:50.361Z,2.00
2022-09-07T07:30:20.078Z,2.20
2022-09-07T07:32:48.697Z,1.67
2022-09-07T07:35:16.752Z,1.33
2022-09-07T07:37:44.644Z,1.90
2022-09-07T07:40:15.557Z,1.90
2022-09-07T07:42:44.858Z,2.20
2022-09-07T07:48:02.834Z,2.03
2022-09-07T07:50:31.730Z,2.23
2022-09-07T07:55:49.974Z,2.30
2022-09-07T07:58:17.961Z,1.63
2022-09-07T08:01:01.529Z,1.47
2022-09-07T08:03:30.807Z,2.30
2022-09-07T08:06:08.129Z,2.10
2022-09-07T08:08:37.252Z,2.43
2022-09-07T08:11:08.212Z,1.80
2022-09-07T08:13:36.429Z,2.30
2022-09-07T08:16:05.421Z,1.77
2022-09-07T08:18:35.005Z,2.77
2022-09-07T08:21:04.110Z,2.83
2022-09-07T08:23:33.113Z,1.70
2022-09-07T08:26:01.461Z,2.13
2022-09-07T08:28:32.363Z,1.83
2022-09-07T08:31:00.745Z,2.23
2022-09-07T08:33:28.697Z,2.00
2022-09-07T08:35:58.155Z,1.83
2022-09-07T08:38:26.750Z,2.20
2022-09-07T08:40:54.936Z,2.40
2022-09-07T08:43:41.070Z,2.40
2022-09-07T08:46:19.557Z,2.30
2022-09-07T08:48:48.189Z,2.83
2022-09-07T08:51:24.332Z,2.67
2022-09-07T08:53:53.177Z,2.80
2022-09-07T08:56:28.130Z,2.10
2022-09-07T08:59:02.837Z,2.80
2022-09-07T09:01:34.673Z,2.43
2022-09-07T09:04:21.431Z,2.80
2022-09-07T09:07:05.457Z,2.70
2022-09-07T09:09:46.728Z,2.80
2022-09-07T09:12:24.112Z,2.77
2022-09-07T09:15:08.712Z,3.20
2022-09-07T09:17:40.739Z,2.33
2022-09-07T09:20:19.201Z,2.50
2022-09-07T09:22:47.091Z,3.37
2022-09-07T09:25:19.955Z,2.00
2022-09-07T09:27:48.412Z,2.60
2022-09-07T09:30:19.591Z,3.30
2022-09-07T09:32:49.027Z,2.80
2022-09-07T09:35:20.791Z,3.10
2022-09-07T09:37:48.644Z,3.10
2022-09-07T09:40:23.410Z,2.80
2022-09-07T09:43:04.074Z,3.27
2022-09-07T09:48:33.627Z,2.40
2022-09-07T09:54:00.323Z,3.00
2022-09-07T09:56:42.911Z,2.17
2022-09-07T10:05:27.450Z,2.43
2022-09-07T10:07:56.246Z,2.20
2022-09-07T10:10:24.195Z,2.60
2022-09-07T10:12:55.132Z,2.53
2022-09-07T10:15:32.870Z,2.67
2022-09-07T10:18:05.927Z,2.83
2022-09-07T10:20:36.709Z,2.50
2022-09-07T10:23:05.625Z,2.90
2022-09-07T10:25:37.198Z,2.23
2022-09-07T10:28:16.235Z,1.87
2022-09-07T10:30:56.933Z,3.03
2022-09-07T10:33:35.805Z,2.37
2022-09-07T10:36:09.355Z,3.00
2022-09-07T10:38:44.088Z,2.40
2022-09-07T10:41:12.614Z,2.30
2022-09-07T10:43:44.312Z,2.30
2022-09-07T10:49:27.890Z,2.33
2022-09-07T10:52:15.447Z,2.00
2022-09-07T10:54:51.573Z,2.10
2022-09-07T10:57:36.967Z,1.73
2022-09-07T11:00:11.099Z,1.57
2022-09-07T11:03:30.576Z,2.10
2022-09-07T11:06:17.239Z,2.50
2022-09-07T11:09:17.398Z,1.70
2022-09-07T11:12:04.774Z,2.30
2022-09-07T11:14:39.211Z,1.70
2022-09-07T11:17:14.910Z,2.17
2022-09-07T11:19:50.764Z,2.30
2022-09-07T11:22:28.607Z,2.70
2022-09-07T11:27:54.826Z,2.07
2022-09-07T11:30:25.718Z,2.00
2022-09-07T11:33:04.007Z,3.30
2022-09-07T11:35:42.011Z,2.30
2022-09-07T11:38:25.439Z,1.77
2022-09-07T11:41:16.134Z,2.40
2022-09-07T11:43:47.073Z,2.10
2022-09-07T11:46:17.897Z,2.50
2022-09-07T11:48:48.785Z,2.00
2022-09-07T11:51:26.676Z,2.93
2022-09-07T11:54:05.028Z,2.17
2022-09-07T11:56:37.433Z,2.70
2022-09-07T11:59:18.889Z,2.67
2022-09-07T12:01:57.392Z,2.80
2022-09-07T12:04:39.817Z,2.00
2022-09-07T12:07:46.662Z,2.90
2022-09-07T12:10:46.454Z,2.13
2022-09-07T12:13:38.380Z,2.40
2022-09-07T12:16:12.923Z,2.40
2022-09-07T12:19:06.004Z,2.30
2022-09-07T12:21:41.290Z,1.97
2022-09-07T12:24:35.986Z,3.00
2022-09-07T12:27:06.427Z,4.60
2022-09-07T12:29:34.707Z,2.70
2022-09-07T12:34:54.369Z,3.50
2022-09-07T12:37:44.235Z,2.60
2022-09-07T12:40:59.729Z,2.70
2022-09-07T12:44:08.257Z,2.90
2022-09-07T12:46:46.976Z,3.07
2022-09-07T12:49:42.563Z,3.20
2022-09-07T12:52:45.256Z,2.50
2022-09-07T12:55:33.665Z,1.80
2022-09-07T12:58:14.985Z,2.00
2022-09-07T13:01:01.287Z,1.60
2022-09-07T13:03:51.778Z,1.80
2022-09-07T13:09:34.818Z,1.30
2022-09-07T13:15:14.605Z,1.20
2022-09-07T13:17:57.323Z,1.40
2022-09-07T13:20:30.272Z,1.93
2022-09-07T13:23:29.107Z,1.50
2022-09-07T13:26:00.191Z,1.10
2022-09-07T13:28:54.825Z,1.67
2022-09-07T13:31:48.723Z,1.20
2022-09-07T13:34:44.959Z,1.50
2022-09-07T13:37:24.381Z,1.80
2022-09-07T13:39:55.030Z,1.90
2022-09-07T13:42:26.044Z,2.00
2022-09-07T13:44:58.922Z,1.40
2022-09-07T13:47:38.939Z,2.17
2022-09-07T13:50:23.084Z,1.83
2022-09-07T13:53:35.209Z,2.00
2022-09-07T13:56:16.444Z,1.60
2022-09-07T13:58:47.680Z,1.80
2022-09-07T14:01:19.457Z,1.50
2022-09-07T14:03:50.969Z,1.47
2022-09-07T14:06:33.299Z,1.60
2022-09-07T14:09:03.719Z,2.27
2022-09-07T14:11:40.718Z,2.23
2022-09-07T14:14:21.227Z,1.57
2022-09-07T14:16:51.327Z,1.20
2022-09-07T14:19:25.329Z,2.20
2022-09-07T14:21:59.986Z,1.67
2022-09-07T14:24:34.788Z,1.80
2022-09-07T14:27:03.240Z,2.70
2022-09-07T14:29:33.272Z,1.67
2022-09-07T14:32:03.218Z,1.43
2022-09-07T14:34:35.058Z,1.10
2022-09-07T14:37:08.275Z,2.23
2022-09-07T14:39:40.136Z,1.53
2022-09-07T14:42:11.493Z,1.20
2022-09-07T14:44:43.022Z,1.77
2022-09-07T14:47:30.079Z,1.33
2022-09-07T14:50:05.629Z,1.70
2022-09-07T14:52:43.320Z,1.57
2022-09-07T14:55:31.392Z,1.03
2022-09-07T14:58:23.105Z,1.60
2022-09-07T15:03:58.513Z,1.40
2022-09-07T15:09:36.296Z,1.20
2022-09-07T15:12:11.725Z,0.80
2022-09-07T15:14:39.626Z,1.40
2022-09-07T15:19:55.530Z,1.40
2022-09-07T15:22:23.424Z,1.27
2022-09-07T15:24:52.657Z,1.33
2022-09-07T15:27:21.278Z,1.00
2022-09-07T15:29:49.231Z,0.83
2022-09-07T15:32:18.803Z,1.93
2022-09-07T15:34:46.769Z,1.17
2022-09-07T15:40:16.259Z,1.40
2022-09-07T15:43:00.321Z,1.00
2022-09-07T15:45:31.710Z,1.10
2022-09-07T15:48:01.759Z,1.20
2022-09-07T15:50:31.706Z,1.40
2022-09-07T15:53:00.825Z,1.30
2022-09-07T15:55:30.392Z,1.30
2022-09-07T15:58:11.107Z,1.53
2022-09-07T16:00:40.042Z,1.03
2022-09-07T16:03:08.822Z,1.50
2022-09-07T16:05:40.294Z,1.57
2022-09-07T16:11:05.385Z,1.40
2022-09-07T16:13:34.331Z,1.87
2022-09-07T16:16:05.682Z,1.30
2022-09-07T16:18:35.061Z,1.20
2022-09-07T16:21:11.491Z,1.77
2022-09-07T16:23:42.054Z,1.20
2022-09-07T16:26:12.554Z,1.10
2022-09-07T16:28:41.685Z,1.23
2022-09-07T16:31:14.038Z,1.53
2022-09-07T16:33:42.138Z,1.00
2022-09-07T16:36:14.327Z,1.27
2022-09-07T16:38:44.707Z,1.37
2022-09-07T16:41:16.840Z,1.90
2022-09-07T16:43:46.084Z,1.30
2022-09-07T16:46:15.826Z,1.20
2022-09-07T16:48:44.926Z,1.83
2022-09-07T16:51:14.903Z,1.17
2022-09-07T16:53:43.422Z,1.17
2022-09-07T16:56:13.687Z,1.50
2022-09-07T16:58:44.716Z,1.40
2022-09-07T17:01:15.760Z,1.20
2022-09-07T17:03:44.060Z,1.17
2022-09-07T17:06:14.308Z,1.30
2022-09-07T17:08:42.830Z,1.53
2022-09-07T17:11:13.241Z,1.37
2022-09-07T17:13:43.739Z,1.20
2022-09-07T17:16:13.834Z,1.10
2022-09-07T17:21:33.284Z,1.37
2022-09-07T17:24:04.187Z,1.17
2022-09-07T17:26:33.201Z,1.80
2022-09-07T17:29:02.734Z,1.40
2022-09-07T17:34:20.580Z,1.33
2022-09-07T17:36:48.749Z,1.17
2022-09-07T17:39:18.820Z,1.37
2022-09-07T17:41:47.603Z,1.00
2022-09-07T17:44:16.830Z,1.20
2022-09-07T17:46:45.027Z,0.97
2022-09-07T17:49:16.126Z,1.80
2022-09-07T17:51:45.281Z,1.77
2022-09-07T17:54:15.637Z,1.30
2022-09-07T17:56:44.475Z,0.90
2022-09-07T18:02:02.250Z,1.07
2022-09-07T18:04:30.310Z,1.30
2022-09-07T18:06:58.370Z,1.10
2022-09-07T18:09:26.268Z,1.23
2022-09-07T18:11:54.271Z,1.17
2022-09-07T18:14:22.172Z,1.10
2022-09-07T18:16:50.932Z,1.10
2022-09-07T18:19:20.427Z,1.33
2022-09-07T18:21:50.604Z,0.90
2022-09-07T18:24:22.896Z,2.03
2022-09-07T18:26:53.305Z,1.90
2022-09-07T18:29:33.552Z,1.10
2022-09-07T18:32:04.802Z,1.40
2022-09-07T18:34:38.473Z,1.40
2022-09-07T18:37:07.195Z,1.80
2022-09-07T18:39:35.620Z,1.07
2022-09-07T18:42:04.129Z,1.53
2022-09-07T18:47:28.011Z,1.10
2022-09-07T18:49:58.393Z,2.20
2022-09-07T18:55:14.580Z,1.57
2022-09-07T18:57:44.953Z,1.53
2022-09-07T19:00:14.045Z,1.50
2022-09-07T19:02:42.591Z,1.47
2022-09-07T19:08:03.159Z,1.80
2022-09-07T19:10:33.929Z,1.53
2022-09-07T19:13:01.817Z,1.43
2022-09-07T19:15:30.986Z,1.53
2022-09-07T19:18:01.066Z,1.67
2022-09-07T19:20:30.265Z,1.27
2022-09-07T19:22:58.284Z,1.63
2022-09-07T19:25:26.928Z,1.53
2022-09-07T19:27:54.839Z,1.47
2022-09-07T19:30:23.698Z,2.00
2022-09-07T19:32:51.596Z,1.77
2022-09-07T19:35:19.465Z,2.00
2022-09-07T19:37:49.326Z,1.87
2022-09-07T19:40:19.365Z,1.40
2022-09-07T19:42:47.578Z,1.60
2022-09-07T19:45:15.780Z,1.73
2022-09-07T19:47:43.689Z,2.40
2022-09-07T19:50:11.587Z,2.93
2022-09-07T19:52:39.671Z,3.53
2022-09-07T19:55:10.040Z,2.83
2022-09-07T19:57:38.019Z,2.27
2022-09-07T20:00:07.028Z,3.10
2022-09-07T20:02:40.741Z,3.10
2022-09-07T20:05:09.215Z,3.10
2022-09-07T20:07:37.121Z,3.37
2022-09-07T20:10:06.577Z,3.60
2022-09-07T20:12:35.873Z,3.40
2022-09-07T20:15:03.898Z,4.80
2022-09-07T20:17:35.363Z,3.87
2022-09-07T20:20:03.950Z,3.90
2022-09-07T20:22:31.957Z,4.13
2022-09-07T20:25:00.097Z,3.30
2022-09-07T20:27:28.023Z,3.70
2022-09-07T20:29:57.566Z,3.57
2022-09-07T20:32:27.819Z,4.40
2022-09-07T20:34:56.357Z,3.17
2022-09-07T20:37:27.225Z,4.30
2022-09-07T20:39:55.213Z,3.80
2022-09-07T20:42:48.758Z,3.93
2022-09-07T20:45:18.189Z,3.23
2022-09-07T20:47:46.229Z,3.90
2022-09-07T20:50:14.234Z,4.00
2022-09-07T20:52:42.068Z,3.40
2022-09-07T20:55:10.551Z,4.33
2022-09-07T20:57:38.730Z,3.40
2022-09-07T21:00:07.973Z,3.40
2022-09-07T21:02:37.760Z,3.40
2022-09-07T21:05:07.804Z,3.47
2022-09-07T21:07:38.169Z,4.07
2022-09-07T21:10:07.103Z,4.20
2022-09-07T21:12:34.991Z,3.37
2022-09-07T21:15:03.291Z,3.70
2022-09-07T21:17:31.173Z,3.17
2022-09-07T21:20:00.395Z,4.10
2022-09-07T21:22:28.241Z,4.40
2022-09-07T21:24:56.114Z,3.60
2022-09-07T21:27:23.951Z,3.40
2022-09-07T21:29:51.994Z,3.90
2022-09-07T21:32:19.852Z,3.33
2022-09-07T21:34:47.791Z,3.20
2022-09-07T21:37:16.942Z,3.47
2022-09-07T21:39:44.986Z,3.80
2022-09-07T21:42:12.884Z,3.43
2022-09-07T21:44:45.872Z,3.60
2022-09-07T21:47:13.736Z,3.40
2022-09-07T21:49:41.747Z,2.97
2022-09-07T21:52:09.601Z,3.50
2022-09-07T21:54:39.160Z,3.73
2022-09-07T21:57:07.087Z,3.50
2022-09-07T21:59:35.320Z,3.43
2022-09-07T22:02:03.571Z,3.60
2022-09-07T22:04:33.357Z,3.47
2022-09-07T22:07:01.267Z,3.70
2022-09-07T22:09:29.217Z,3.70
2022-09-07T22:11:59.968Z,3.13
2022-09-07T22:14:29.344Z,3.93
2022-09-07T22:16:57.231Z,3.47
2022-09-07T22:19:25.131Z,3.90
2022-09-07T22:21:53.743Z,4.17
2022-09-07T22:24:21.751Z,3.80
2022-09-07T22:26:51.781Z,3.40
2022-09-07T22:29:21.130Z,3.03
2022-09-07T22:31:49.194Z,3.47
2022-09-07T22:34:17.130Z,3.23
2022-09-07T22:36:45.746Z,3.67
2022-09-07T22:39:16.234Z,3.00
2022-09-07T22:41:45.341Z,3.63
2022-09-07T22:44:17.850Z,3.43
2022-09-07T22:46:48.582Z,3.80
2022-09-07T22:49:17.702Z,3.17
2022-09-07T22:51:46.401Z,3.07
2022-09-07T22:54:14.370Z,3.00
2022-09-07T22:56:42.369Z,3.03
2022-09-07T22:59:11.392Z,2.93
2022-09-07T23:01:39.873Z,2.73
2022-09-07T23:04:09.385Z,3.83
2022-09-07T23:06:38.953Z,3.57
2022-09-07T23:09:08.693Z,3.07
2022-09-07T23:11:36.812Z,2.80
2022-09-07T23:14:07.095Z,3.20
2022-09-07T23:16:35.312Z,4.07
2022-09-07T23:19:04.539Z,3.40
2022-09-07T23:21:33.909Z,3.00
2022-09-07T23:24:01.998Z,3.23
2022-09-07T23:26:31.618Z,3.33
2022-09-07T23:29:01.672Z,3.50
2022-09-07T23:31:33.067Z,3.60
2022-09-07T23:34:02.032Z,3.60
2022-09-07T23:36:30.001Z,3.87
2022-09-07T23:39:01.096Z,2.70
2022-09-07T23:41:29.556Z,3.80
2022-09-07T23:43:57.713Z,3.00
2022-09-07T23:46:25.704Z,2.77
2022-09-07T23:48:53.734Z,3.73
2022-09-07T23:51:24.493Z,3.40
2022-09-07T23:53:53.109Z,3.37
2022-09-07T23:56:24.349Z,3.10
2022-09-07T23:58:52.616Z,2.97
